createdAt,value
2018-10-04T00:01:35.019Z,99.90
2018-10-04T00:04:03.538Z,99.90
2018-10-04T00:06:32.071Z,99.90
2018-10-04T00:09:01.003Z,99.90
2018-10-04T00:11:30.102Z,99.90
2018-10-04T00:13:59.269Z,99.90
2018-10-04T00:16:27.798Z,99.90
2018-10-04T00:18:56.319Z,99.90
2018-10-04T00:21:24.829Z,99.90
2018-10-04T00:23:53.362Z,99.90
2018-10-04T00:26:21.877Z,99.90
2018-10-04T00:28:50.396Z,99.90
2018-10-04T00:31:19.159Z,99.90
2018-10-04T00:33:47.676Z,99.90
2018-10-04T00:41:09.162Z,99.90
2018-10-04T00:43:38.017Z,99.90
2018-10-04T00:46:06.537Z,99.90
2018-10-04T00:48:35.727Z,99.90
2018-10-04T00:51:04.608Z,99.90
2018-10-04T00:53:33.184Z,99.90
2018-10-04T00:56:01.802Z,99.90
2018-10-04T00:58:30.382Z,99.90
2018-10-04T01:00:59.619Z,99.90
2018-10-04T01:03:28.158Z,99.90
2018-10-04T01:05:56.727Z,99.90
2018-10-04T01:08:25.286Z,99.90
2018-10-04T01:10:54.488Z,99.90
2018-10-04T01:13:23.424Z,99.90
2018-10-04T01:15:51.963Z,99.90
2018-10-04T01:18:31.690Z,99.90
2018-10-04T01:21:00.198Z,99.90
2018-10-04T01:23:28.804Z,99.90
2018-10-04T01:25:57.690Z,99.90
2018-10-04T01:28:26.305Z,99.90
2018-10-04T01:30:54.877Z,99.90
2018-10-04T01:33:23.434Z,99.90
2018-10-04T01:35:52.018Z,99.90
2018-10-04T01:38:20.613Z,99.90
2018-10-04T01:40:49.271Z,99.90
2018-10-04T01:43:17.935Z,99.90
2018-10-04T01:45:46.492Z,99.90
2018-10-04T01:53:09.574Z,99.90
2018-10-04T01:55:38.114Z,99.90
2018-10-04T01:58:07.340Z,99.90
2018-10-04T02:00:36.700Z,99.90
2018-10-04T02:03:05.237Z,99.90
2018-10-04T02:05:33.763Z,99.90
2018-10-04T02:08:02.629Z,99.90
2018-10-04T02:10:31.182Z,99.90
2018-10-04T02:12:59.695Z,99.90
2018-10-04T02:15:29.045Z,99.90
2018-10-04T02:17:58.097Z,99.90
2018-10-04T02:20:26.627Z,99.90
2018-10-04T02:22:55.159Z,99.90
2018-10-04T02:25:23.669Z,99.90
2018-10-04T02:27:52.217Z,99.90
2018-10-04T02:30:20.759Z,99.90
2018-10-04T02:32:49.275Z,99.90
2018-10-04T02:35:17.829Z,99.90
2018-10-04T02:37:46.610Z,99.90
2018-10-04T02:45:15.059Z,99.90
2018-10-04T02:47:44.002Z,99.90
2018-10-04T02:50:13.075Z,99.90
2018-10-04T02:52:41.634Z,99.90
2018-10-04T02:55:16.005Z,99.90
2018-10-04T02:57:45.222Z,99.90
2018-10-04T03:00:13.777Z,99.90
2018-10-04T03:02:42.274Z,99.90
2018-10-04T03:05:10.854Z,99.90
2018-10-04T03:07:39.401Z,99.90
2018-10-04T03:10:07.953Z,99.90
2018-10-04T03:12:36.541Z,99.90
2018-10-04T03:15:05.799Z,99.90
2018-10-04T03:17:34.658Z,99.90
2018-10-04T03:20:03.941Z,99.90
2018-10-04T03:22:32.399Z,99.90
2018-10-04T03:25:00.910Z,99.90
2018-10-04T03:27:29.447Z,99.90
2018-10-04T03:29:57.984Z,99.90
2018-10-04T03:32:26.482Z,99.90
2018-10-04T03:34:54.996Z,99.90
2018-10-04T03:37:23.526Z,99.90
2018-10-04T03:39:52.290Z,99.90
2018-10-04T03:42:20.930Z,99.90
2018-10-04T03:44:49.459Z,99.90
2018-10-04T03:47:17.970Z,99.90
2018-10-04T03:49:46.538Z,99.90
2018-10-04T03:57:13.004Z,99.90
2018-10-04T03:59:41.767Z,99.90
2018-10-04T04:02:10.352Z,99.90
2018-10-04T04:04:39.799Z,99.90
2018-10-04T04:07:08.326Z,99.90
2018-10-04T04:09:36.864Z,99.90
2018-10-04T04:12:05.435Z,99.90
2018-10-04T04:14:33.934Z,99.90
2018-10-04T04:17:02.466Z,99.90
2018-10-04T04:19:31.162Z,99.90
2018-10-04T04:21:59.719Z,99.90
2018-10-04T04:24:28.227Z,99.90
2018-10-04T04:26:56.819Z,99.90
2018-10-04T04:29:25.490Z,99.90
2018-10-04T04:31:54.211Z,99.90
2018-10-04T04:34:22.694Z,99.90
2018-10-04T04:36:51.266Z,99.90
2018-10-04T04:39:20.208Z,99.90
2018-10-04T04:41:48.832Z,99.90
2018-10-04T04:44:17.411Z,99.90
2018-10-04T04:46:46.091Z,99.90
2018-10-04T04:54:21.896Z,99.90
2018-10-04T04:56:50.383Z,99.90
2018-10-04T04:59:19.012Z,99.90
2018-10-04T05:01:49.429Z,99.90
2018-10-04T05:04:18.218Z,99.90
2018-10-04T05:06:46.698Z,99.90
2018-10-04T05:14:16.089Z,99.90
2018-10-04T05:16:44.630Z,99.90
2018-10-04T05:19:13.156Z,99.90
2018-10-04T05:21:42.120Z,99.90
2018-10-04T05:24:11.227Z,99.90
2018-10-04T05:26:40.267Z,99.90
2018-10-04T05:29:08.897Z,99.90
2018-10-04T05:31:37.566Z,99.90
2018-10-04T05:34:06.580Z,99.90
2018-10-04T05:36:36.247Z,99.90
2018-10-04T05:39:05.253Z,99.90
2018-10-04T05:41:33.766Z,99.90
2018-10-04T05:44:02.334Z,99.90
2018-10-04T05:46:30.970Z,99.90
2018-10-04T05:48:59.437Z,99.90
2018-10-04T05:51:28.048Z,99.90
2018-10-04T05:53:56.722Z,99.90
2018-10-04T05:56:25.306Z,99.90
2018-10-04T05:58:53.940Z,99.90
2018-10-04T06:01:22.402Z,99.90
2018-10-04T06:03:52.594Z,99.90
2018-10-04T06:06:21.150Z,99.90
2018-10-04T06:08:49.764Z,99.90
2018-10-04T06:11:18.306Z,99.90
2018-10-04T06:13:46.905Z,99.90
2018-10-04T06:26:07.915Z,99.90
2018-10-04T06:28:36.460Z,99.90
2018-10-04T06:31:05.033Z,99.90
2018-10-04T06:33:33.710Z,99.90
2018-10-04T06:36:02.869Z,99.90
2018-10-04T06:38:31.503Z,99.90
2018-10-04T06:41:00.126Z,99.90
2018-10-04T06:43:28.707Z,99.90
2018-10-04T06:45:57.442Z,99.90
2018-10-04T06:48:27.133Z,99.90
2018-10-04T06:50:56.409Z,99.90
2018-10-04T06:53:25.659Z,99.90
2018-10-04T06:55:54.170Z,99.90
2018-10-04T06:58:22.847Z,99.90
2018-10-04T07:00:51.346Z,99.90
2018-10-04T07:03:19.871Z,99.90
2018-10-04T07:05:48.385Z,99.90
2018-10-04T07:08:17.421Z,99.90
2018-10-04T07:10:46.551Z,99.90
2018-10-04T07:18:14.553Z,99.90
2018-10-04T07:20:43.476Z,99.90
2018-10-04T07:23:12.047Z,99.90
2018-10-04T07:25:40.597Z,99.90
2018-10-04T07:28:09.675Z,99.90
2018-10-04T07:30:38.189Z,99.90
2018-10-04T07:33:07.840Z,99.90
2018-10-04T07:35:36.342Z,99.90
2018-10-04T07:38:04.864Z,99.90
2018-10-04T07:40:33.362Z,99.90
2018-10-04T07:43:01.927Z,99.90
2018-10-04T07:45:30.426Z,99.90
2018-10-04T07:47:59.848Z,99.90
2018-10-04T07:50:28.316Z,99.90
2018-10-04T07:52:56.821Z,99.90
2018-10-04T07:55:25.671Z,99.90
2018-10-04T07:57:54.200Z,99.90
2018-10-04T08:00:22.773Z,99.90
2018-10-04T08:02:51.803Z,99.90
2018-10-04T08:05:20.507Z,99.90
2018-10-04T08:07:48.999Z,99.90
2018-10-04T08:10:17.899Z,99.90
2018-10-04T08:12:46.390Z,99.90
2018-10-04T08:20:15.582Z,99.30
2018-10-04T08:22:46.467Z,98.90
2018-10-04T08:30:12.219Z,95.80
2018-10-04T08:32:41.104Z,95.60
2018-10-04T08:35:09.620Z,94.90
2018-10-04T08:37:38.467Z,93.50
2018-10-04T08:40:07.020Z,92.20
2018-10-04T08:42:35.606Z,91.10
2018-10-04T08:45:04.170Z,85.00
2018-10-04T08:47:32.686Z,80.30
2018-10-04T08:50:01.207Z,76.60
2018-10-04T08:52:35.392Z,73.80
2018-10-04T08:55:09.126Z,70.70
2018-10-04T08:57:38.252Z,66.00
2018-10-04T09:00:07.354Z,67.40
2018-10-04T09:02:35.838Z,67.90
2018-10-04T09:05:04.630Z,69.10
2018-10-04T09:07:33.320Z,72.10
2018-10-04T09:10:02.052Z,68.40
2018-10-04T09:12:31.094Z,67.20
2018-10-04T09:15:01.481Z,69.00
2018-10-04T09:17:30.027Z,70.00
2018-10-04T09:19:58.592Z,71.00
2018-10-04T09:22:27.136Z,72.60
2018-10-04T09:24:55.649Z,75.10
2018-10-04T09:27:24.164Z,80.10
2018-10-04T09:29:58.280Z,80.30
2018-10-04T09:32:27.251Z,80.70
2018-10-04T09:34:55.742Z,74.00
2018-10-04T09:37:24.252Z,75.50
2018-10-04T09:39:53.417Z,74.60
2018-10-04T09:42:21.951Z,70.80
2018-10-04T09:44:50.475Z,66.70
2018-10-04T09:47:24.289Z,64.30
2018-10-04T09:49:52.794Z,61.60
2018-10-04T09:52:22.094Z,63.80
2018-10-04T09:54:57.197Z,66.00
2018-10-04T09:57:31.177Z,70.50
2018-10-04T10:00:00.612Z,72.20
2018-10-04T10:02:35.003Z,72.30
2018-10-04T10:05:03.591Z,73.60
2018-10-04T10:07:32.135Z,74.60
2018-10-04T10:10:00.685Z,77.20
2018-10-04T10:12:29.474Z,79.40
2018-10-04T10:14:58.130Z,81.50
2018-10-04T10:17:26.652Z,81.20
2018-10-04T10:19:55.176Z,82.60
2018-10-04T10:22:23.685Z,84.50
2018-10-04T10:24:52.885Z,86.10
2018-10-04T10:27:21.655Z,87.10
2018-10-04T10:29:50.100Z,87.50
2018-10-04T10:32:18.615Z,89.10
2018-10-04T10:34:48.323Z,90.30
2018-10-04T10:37:18.601Z,91.30
2018-10-04T10:39:47.382Z,90.80
2018-10-04T10:47:15.639Z,91.50
2018-10-04T10:49:44.168Z,93.60
2018-10-04T10:52:12.654Z,93.50
2018-10-04T10:54:41.843Z,93.30
2018-10-04T10:57:10.334Z,92.80
2018-10-04T10:59:38.891Z,92.50
2018-10-04T11:02:07.690Z,93.60
2018-10-04T11:04:38.258Z,94.10
2018-10-04T11:07:07.650Z,94.40
2018-10-04T11:09:36.853Z,93.80
2018-10-04T11:12:06.257Z,94.00
2018-10-04T11:14:35.633Z,94.20
2018-10-04T11:17:06.541Z,93.10
2018-10-04T11:19:35.168Z,93.30
2018-10-04T11:22:04.462Z,93.30
2018-10-04T11:24:33.704Z,93.80
2018-10-04T11:27:03.357Z,94.60
2018-10-04T11:29:33.268Z,94.60
2018-10-04T11:32:03.811Z,94.00
2018-10-04T11:34:32.783Z,93.70
2018-10-04T11:37:02.452Z,93.60
2018-10-04T11:39:32.062Z,93.70
2018-10-04T11:42:03.410Z,93.60
2018-10-04T11:44:36.129Z,94.40
2018-10-04T11:47:12.542Z,94.50
2018-10-04T11:49:41.230Z,94.40
2018-10-04T11:52:10.690Z,93.40
2018-10-04T11:54:39.346Z,93.70
2018-10-04T11:57:08.559Z,93.50
2018-10-04T11:59:37.756Z,94.20
2018-10-04T12:02:06.925Z,94.70
2018-10-04T12:04:36.227Z,94.80
2018-10-04T12:07:05.778Z,94.40
2018-10-04T12:09:35.843Z,94.90
2018-10-04T12:12:05.988Z,94.80
2018-10-04T12:14:36.348Z,94.90
2018-10-04T12:17:05.759Z,95.10
2018-10-04T12:19:34.966Z,94.70
2018-10-04T12:22:03.776Z,94.40
2018-10-04T12:24:32.331Z,94.40
2018-10-04T12:27:01.133Z,94.40
2018-10-04T12:29:29.782Z,95.50
2018-10-04T12:31:58.266Z,95.20
2018-10-04T12:34:27.091Z,95.00
2018-10-04T12:36:55.612Z,95.30
2018-10-04T12:39:25.591Z,94.90
2018-10-04T12:41:55.185Z,95.30
2018-10-04T12:44:25.908Z,94.30
2018-10-04T12:46:55.409Z,94.80
2018-10-04T12:49:23.945Z,94.70
2018-10-04T12:51:52.475Z,94.90
2018-10-04T12:54:22.237Z,95.20
2018-10-04T12:56:50.807Z,94.40
2018-10-04T12:59:19.315Z,94.70
2018-10-04T13:01:48.536Z,94.60
2018-10-04T13:04:17.557Z,94.50
2018-10-04T13:06:46.717Z,94.60
2018-10-04T13:14:17.632Z,94.70
2018-10-04T13:16:46.175Z,95.10
2018-10-04T13:24:08.966Z,95.00
2018-10-04T13:26:37.848Z,94.30
2018-10-04T13:29:06.379Z,94.10
2018-10-04T13:31:34.927Z,94.40
2018-10-04T13:34:03.438Z,93.50
2018-10-04T13:36:32.377Z,93.60
2018-10-04T13:39:00.928Z,94.60
2018-10-04T13:41:29.507Z,94.40
2018-10-04T13:43:58.004Z,94.20
2018-10-04T13:46:26.569Z,94.30
2018-10-04T13:48:55.959Z,94.10
2018-10-04T13:51:24.971Z,93.50
2018-10-04T13:53:54.165Z,93.80
2018-10-04T13:56:22.751Z,94.00
2018-10-04T13:58:51.328Z,94.00
2018-10-04T14:01:19.887Z,94.10
2018-10-04T14:03:48.451Z,93.60
2018-10-04T14:06:18.999Z,92.80
2018-10-04T14:08:47.750Z,92.60
2018-10-04T14:16:09.483Z,92.80
2018-10-04T14:18:38.023Z,92.20
2018-10-04T14:21:06.648Z,92.10
2018-10-04T14:23:35.154Z,92.50
2018-10-04T14:26:05.700Z,92.00
2018-10-04T14:28:34.346Z,92.00
2018-10-04T14:31:02.966Z,91.40
2018-10-04T14:33:31.450Z,91.40
2018-10-04T14:35:59.949Z,90.90
2018-10-04T14:38:28.445Z,90.60
2018-10-04T14:40:57.371Z,90.30
2018-10-04T14:43:26.632Z,91.10
2018-10-04T14:45:55.185Z,91.10
2018-10-04T14:48:23.708Z,90.20
2018-10-04T14:50:52.205Z,90.10
2018-10-04T14:53:22.143Z,88.70
2018-10-04T14:55:50.650Z,88.40
2018-10-04T14:58:19.205Z,87.90
2018-10-04T15:00:47.719Z,86.80
2018-10-04T15:03:17.449Z,89.10
2018-10-04T15:05:46.267Z,89.90
2018-10-04T15:13:11.658Z,89.80
2018-10-04T15:15:40.387Z,90.50
2018-10-04T15:18:08.918Z,90.30
2018-10-04T15:20:37.826Z,90.70
2018-10-04T15:23:06.503Z,90.20
2018-10-04T15:25:35.086Z,89.90
2018-10-04T15:28:05.078Z,88.60
2018-10-04T15:30:33.835Z,88.20
2018-10-04T15:33:02.367Z,87.50
2018-10-04T15:35:32.703Z,88.90
2018-10-04T15:38:01.287Z,90.30
2018-10-04T15:40:29.835Z,90.40
2018-10-04T15:42:58.462Z,90.60
2018-10-04T15:45:27.889Z,91.00
2018-10-04T15:47:56.454Z,91.40
2018-10-04T15:50:25.166Z,91.60
2018-10-04T15:52:54.091Z,91.70
2018-10-04T15:55:23.428Z,91.90
2018-10-04T15:57:52.810Z,91.30
2018-10-04T16:00:21.343Z,91.50
2018-10-04T16:02:49.983Z,91.90
2018-10-04T16:05:18.569Z,91.90
2018-10-04T16:07:47.172Z,92.30
2018-10-04T16:10:17.548Z,92.60
2018-10-04T16:12:46.131Z,93.20
2018-10-04T16:20:12.951Z,93.20
2018-10-04T16:22:41.447Z,93.50
2018-10-04T16:25:09.975Z,93.60
2018-10-04T16:27:47.252Z,94.00
2018-10-04T16:35:13.200Z,94.00
2018-10-04T16:37:42.436Z,94.50
2018-10-04T16:40:11.854Z,94.50
2018-10-04T16:42:40.706Z,94.60
2018-10-04T16:45:09.649Z,95.10
2018-10-04T16:47:39.212Z,95.40
2018-10-04T16:50:08.420Z,95.40
2018-10-04T16:52:36.912Z,95.60
2018-10-04T16:55:06.365Z,96.00
2018-10-04T16:57:35.296Z,96.30
2018-10-04T17:00:04.256Z,96.60
2018-10-04T17:02:32.910Z,96.80
2018-10-04T17:05:02.367Z,96.90
2018-10-04T17:07:33.227Z,97.70
2018-10-04T17:10:01.899Z,97.70
2018-10-04T17:12:31.225Z,98.20
2018-10-04T17:14:59.844Z,98.90
2018-10-04T17:17:28.371Z,99.30
2018-10-04T17:19:56.962Z,99.30
2018-10-04T17:22:25.884Z,99.40
2018-10-04T17:24:54.406Z,99.30
2018-10-04T17:27:23.567Z,99.60
2018-10-04T17:29:52.634Z,99.90
2018-10-04T17:32:21.326Z,99.90
2018-10-04T17:34:50.007Z,99.90
2018-10-04T17:37:18.579Z,99.90
2018-10-04T17:39:47.510Z,99.90
2018-10-04T17:42:17.549Z,99.90
2018-10-04T17:44:47.088Z,99.90
2018-10-04T17:52:14.049Z,99.90
2018-10-04T17:54:42.565Z,99.90
2018-10-04T17:57:11.062Z,99.90
2018-10-04T17:59:39.594Z,99.90
2018-10-04T18:02:08.141Z,99.90
2018-10-04T18:04:36.724Z,99.90
2018-10-04T18:07:06.199Z,99.90
2018-10-04T18:09:34.722Z,99.90
2018-10-04T18:12:03.306Z,99.90
2018-10-04T18:14:31.856Z,99.90
2018-10-04T18:17:00.406Z,99.90
2018-10-04T18:19:28.911Z,99.90
2018-10-04T18:21:57.504Z,99.90
2018-10-04T18:24:26.361Z,99.90
2018-10-04T18:26:55.133Z,99.90
2018-10-04T18:29:23.684Z,99.90
2018-10-04T18:31:52.220Z,99.90
2018-10-04T18:34:21.131Z,99.90
2018-10-04T18:36:50.670Z,99.90
